Time;durP1;ratioP1;P1;durP2;ratioP2;P2;SDS_P1;SDS_P2;PMS_P1;PMS_P2;Temp;Humidity;BMP_temperature;BMP_pressure;BME280_temperature;BME280_humidity;BME280_pressure;Samples;Min_cycle;Max_cycle;Signal;HPM_P1;HPM_P2
2022/12/09 00:01:22;;;;;;;47.03;19.63;;;2.70;99.90;;;;;;4734181;30;20053;-77
2022/12/09 00:03:49;;;;;;;42.03;17.85;;;2.70;99.90;;;;;;4745929;30;20096;-77
2022/12/09 00:06:20;;;;;;;45.47;18.98;;;2.80;99.90;;;;;;4735647;30;20052;-77
2022/12/09 00:08:49;;;;;;;50.83;20.13;;;3.10;99.90;;;;;;4734638;30;20076;-77
2022/12/09 00:11:18;;;;;;;50.67;20.42;;;2.60;99.90;;;;;;4735301;30;20421;-77
2022/12/09 00:13:50;;;;;;;50.20;20.05;;;2.60;99.90;;;;;;4740740;30;20501;-77
2022/12/09 00:16:18;;;;;;;49.55;20.75;;;2.40;99.90;;;;;;4734898;30;20048;-77
2022/12/09 00:18:46;;;;;;;42.63;19.58;;;2.70;99.90;;;;;;4740148;30;20044;-77
2022/12/09 00:21:22;;;;;;;50.85;18.90;;;2.70;99.90;;;;;;4707618;30;20052;-77
2022/12/09 00:23:52;;;;;;;52.70;21.02;;;2.70;99.90;;;;;;4738955;30;20080;-77
2022/12/09 00:26:21;;;;;;;42.75;18.35;;;2.60;99.90;;;;;;4737196;30;20075;-77
2022/12/09 00:28:50;;;;;;;50.50;21.88;;;1.90;99.90;;;;;;4737336;30;20102;-77
2022/12/09 00:31:32;;;;;;;44.92;20.30;;;2.60;99.90;;;;;;4734990;30;20115;-77
2022/12/09 00:34:05;;;;;;;42.50;18.93;;;2.60;99.90;;;;;;4745840;30;20140;-77
2022/12/09 00:36:33;;;;;;;47.03;20.10;;;3.00;99.90;;;;;;4734596;30;20297;-77
2022/12/09 00:39:01;;;;;;;47.90;20.45;;;2.70;99.90;;;;;;4751317;30;20080;-77
2022/12/09 00:41:29;;;;;;;44.25;18.70;;;2.70;99.90;;;;;;4752217;30;20048;-77
2022/12/09 00:43:56;;;;;;;47.72;20.05;;;2.60;99.90;;;;;;4758665;30;20040;-77
2022/12/09 00:46:28;;;;;;;46.53;20.02;;;2.50;99.90;;;;;;4752633;30;20106;-77
2022/12/09 00:48:57;;;;;;;51.72;21.20;;;2.50;99.90;;;;;;4731383;30;20110;-77
2022/12/09 00:51:27;;;;;;;45.97;20.63;;;2.60;99.90;;;;;;4753831;30;20048;-77
2022/12/09 00:53:55;;;;;;;49.45;19.40;;;2.60;99.90;;;;;;4740747;30;20063;-77
2022/12/09 00:56:27;;;;;;;46.28;17.85;;;2.30;99.90;;;;;;4733598;30;20075;-77
2022/12/09 00:58:55;;;;;;;49.95;19.75;;;2.80;99.90;;;;;;4755992;30;20040;-77
2022/12/09 01:01:27;;;;;;;52.70;21.83;;;2.70;99.90;;;;;;4760184;30;20151;-77
2022/12/09 01:03:55;;;;;;;51.88;21.83;;;2.70;99.90;;;;;;4757746;30;20048;-77
2022/12/09 01:06:25;;;;;;;49.15;19.65;;;2.70;99.90;;;;;;4733901;30;20109;-77
2022/12/09 01:08:56;;;;;;;47.60;19.98;;;2.60;99.90;;;;;;4740369;30;20055;-77
2022/12/09 01:11:27;;;;;;;49.42;20.20;;;2.70;99.90;;;;;;4735690;30;20140;-77
2022/12/09 01:13:59;;;;;;;51.10;20.80;;;2.60;99.90;;;;;;4739184;30;20044;-77
2022/12/09 01:16:31;;;;;;;50.03;20.38;;;3.10;99.90;;;;;;4742677;30;20075;-77
2022/12/09 01:19:02;;;;;;;43.95;19.27;;;3.70;99.90;;;;;;4735308;30;20063;-77
2022/12/09 01:21:31;;;;;;;48.88;20.27;;;2.70;99.90;;;;;;4748313;30;20304;-77
2022/12/09 01:24:00;;;;;;;50.53;20.23;;;2.70;99.90;;;;;;4742666;30;20072;-77
2022/12/09 01:26:30;;;;;;;47.25;19.90;;;2.50;99.90;;;;;;4747861;30;20363;-77
2022/12/09 01:28:58;;;;;;;48.45;20.40;;;2.70;99.90;;;;;;4757824;30;20064;-77
2022/12/09 01:31:25;;;;;;;49.22;20.38;;;2.70;99.90;;;;;;4757725;30;20052;-77
2022/12/09 01:33:55;;;;;;;49.13;20.08;;;2.60;99.90;;;;;;4743473;30;20032;-77
2022/12/09 01:36:27;;;;;;;49.05;21.02;;;2.60;99.90;;;;;;4751750;30;20059;-77
2022/12/09 01:38:58;;;;;;;50.50;19.20;;;2.70;99.90;;;;;;4755994;30;20040;-77
2022/12/09 01:41:27;;;;;;;52.45;19.98;;;1.90;99.90;;;;;;4741870;30;20048;-77
2022/12/09 01:44:16;;;;;;;50.92;21.42;;;2.70;99.90;;;;;;4741596;30;20044;-77
2022/12/09 01:46:45;;;;;;;56.28;22.35;;;2.70;99.90;;;;;;4741724;30;20083;-77
2022/12/09 01:49:21;;;;;;;52.00;21.17;;;2.80;99.90;;;;;;4737567;30;20076;-77
2022/12/09 01:51:59;;;;;;;50.80;21.65;;;3.20;99.90;;;;;;4757280;30;20067;-77
2022/12/09 01:54:27;;;;;;;45.80;19.45;;;2.50;99.90;;;;;;4751187;30;20052;-77
2022/12/09 01:56:57;;;;;;;48.22;20.48;;;1.50;99.90;;;;;;4746995;30;20139;-77
2022/12/09 01:59:26;;;;;;;52.17;20.27;;;2.10;99.90;;;;;;4742482;30;20102;-77
2022/12/09 02:01:58;;;;;;;53.75;21.70;;;2.80;99.90;;;;;;4744543;30;20052;-77
2022/12/09 02:04:32;;;;;;;46.25;20.35;;;2.80;99.90;;;;;;4736363;30;20425;-77
2022/12/09 02:07:07;;;;;;;52.50;20.58;;;3.00;99.90;;;;;;4758407;30;20064;-77
2022/12/09 02:09:36;;;;;;;54.60;22.50;;;2.80;99.90;;;;;;4743484;30;20074;-77
2022/12/09 02:12:14;;;;;;;46.78;19.83;;;2.70;99.90;;;;;;4743264;30;20276;-77
2022/12/09 02:14:54;;;;;;;52.67;22.10;;;2.80;99.90;;;;;;4755254;30;20570;-77
2022/12/09 02:17:46;;;;;;;54.65;22.58;;;2.40;99.90;;;;;;4752621;30;20052;-77
2022/12/09 02:20:39;;;;;;;50.85;20.77;;;2.80;99.90;;;;;;4752465;30;20100;-77
2022/12/09 02:23:15;;;;;;;57.60;22.70;;;2.80;99.90;;;;;;4744212;30;20066;-77
2022/12/09 02:25:47;;;;;;;51.75;23.08;;;2.70;99.90;;;;;;4741241;30;20052;-77
2022/12/09 02:28:35;;;;;;;61.30;22.67;;;2.00;99.90;;;;;;4752646;30;20572;-77
2022/12/09 02:31:28;;;;;;;48.50;20.70;;;2.80;99.90;;;;;;4743956;30;20048;-77
2022/12/09 02:34:14;;;;;;;54.20;21.40;;;2.30;99.90;;;;;;4736632;30;20115;-77
2022/12/09 02:36:45;;;;;;;49.30;20.02;;;2.80;99.90;;;;;;4743069;30;20049;-77
2022/12/09 02:39:13;;;;;;;52.78;22.05;;;2.70;99.90;;;;;;4740159;30;20160;-77
2022/12/09 02:41:47;;;;;;;52.83;21.85;;;2.80;99.90;;;;;;4737171;30;20116;-77
2022/12/09 02:44:18;;;;;;;50.97;20.75;;;2.80;99.90;;;;;;4741879;30;20114;-77
2022/12/09 02:46:47;;;;;;;52.03;21.33;;;2.80;99.90;;;;;;4743381;30;20048;-77
2022/12/09 02:49:15;;;;;;;54.33;22.05;;;2.80;99.90;;;;;;4748975;30;20505;-77
2022/12/09 02:51:44;;;;;;;52.05;21.05;;;2.80;99.90;;;;;;4736194;30;20056;-77
2022/12/09 02:54:16;;;;;;;53.13;22.77;;;2.50;99.90;;;;;;4747525;30;20064;-77
2022/12/09 02:56:59;;;;;;;58.70;23.27;;;2.80;99.90;;;;;;4745080;30;20107;-77
2022/12/09 02:59:28;;;;;;;55.70;22.42;;;2.40;99.90;;;;;;4744196;30;20055;-77
2022/12/09 03:02:11;;;;;;;50.60;20.38;;;2.80;99.90;;;;;;4730829;30;20048;-77
2022/12/09 03:04:43;;;;;;;54.40;21.25;;;2.80;99.90;;;;;;4755246;30;20068;-77
2022/12/09 03:07:37;;;;;;;53.70;21.00;;;2.70;99.90;;;;;;4739422;30;20084;-77
2022/12/09 03:10:22;;;;;;;45.17;19.55;;;2.40;99.90;;;;;;4742233;30;20056;-78
2022/12/09 03:13:05;;;;;;;55.58;22.80;;;2.80;99.90;;;;;;4698533;30;20124;-79
2022/12/09 03:15:41;;;;;;;48.97;20.45;;;2.80;99.90;;;;;;4672621;30;20064;-78
2022/12/09 03:18:13;;;;;;;48.67;20.48;;;2.90;99.90;;;;;;4698747;30;20065;-78
2022/12/09 03:20:47;;;;;;;52.97;21.00;;;3.30;99.90;;;;;;4704583;30;20077;-77
2022/12/09 03:23:20;;;;;;;52.72;21.02;;;3.00;99.90;;;;;;4700686;30;20202;-78
2022/12/09 03:25:58;;;;;;;50.65;20.80;;;3.60;99.90;;;;;;4651722;30;20034;-78
2022/12/09 03:28:37;;;;;;;53.10;21.73;;;1.80;99.90;;;;;;4687875;30;20109;-78
2022/12/09 03:31:13;;;;;;;48.60;19.17;;;2.00;99.90;;;;;;4701655;30;20061;-79
2022/12/09 03:33:49;;;;;;;45.17;19.33;;;2.90;99.90;;;;;;4692136;30;20102;-78
2022/12/09 03:36:19;;;;;;;;;;;2.70;99.90;;;;;;4691205;30;20056;-77
2022/12/09 03:39:01;;;;;;;51.35;18.35;;;2.90;99.90;;;;;;4720433;30;19911;-78
2022/12/09 03:41:38;;;;;;;51.42;19.92;;;3.10;99.90;;;;;;4701051;30;20065;-78
2022/12/09 03:44:19;;;;;;;48.33;20.80;;;2.90;99.90;;;;;;4743751;30;20037;-78
2022/12/09 03:46:48;;;;;;;49.92;21.58;;;2.90;99.90;;;;;;4739595;30;20051;-78
2022/12/09 03:49:18;;;;;;;46.67;19.77;;;2.70;99.90;;;;;;4747786;30;20060;-78
2022/12/09 03:52:14;;;;;;;46.83;20.33;;;2.90;99.90;;;;;;4734858;30;20067;-78
2022/12/09 03:54:44;;;;;;;50.53;21.23;;;3.00;99.90;;;;;;4745246;30;20048;-78
2022/12/09 03:57:49;;;;;;;49.83;20.90;;;2.90;99.90;;;;;;4750107;30;20056;-78
2022/12/09 04:00:22;;;;;;;47.05;19.83;;;2.90;99.90;;;;;;4754315;30;20056;-78
2022/12/09 04:03:06;;;;;;;49.28;20.95;;;2.80;99.90;;;;;;4703947;30;20509;-78
2022/12/09 04:05:41;;;;;;;50.40;20.80;;;2.90;99.90;;;;;;4720435;30;20117;-78
2022/12/09 04:08:29;;;;;;;49.50;21.60;;;2.90;99.90;;;;;;4684947;30;20043;-78
2022/12/09 04:11:03;;;;;;;50.37;20.33;;;3.00;99.90;;;;;;4708624;30;20109;-79
2022/12/09 04:13:39;;;;;;;49.58;22.65;;;3.30;99.90;;;;;;4707455;30;20033;-79
2022/12/09 04:16:10;;;;;;;55.40;22.05;;;3.00;99.90;;;;;;4680420;30;20071;-78
2022/12/09 04:18:41;;;;;;;49.00;21.60;;;2.60;99.90;;;;;;4701170;30;20440;-79
2022/12/09 04:24:39;;;;;;;50.00;20.42;;;3.00;99.90;;;;;;4750565;30;20044;-78
2022/12/09 04:27:11;;;;;;;50.10;21.73;;;3.10;99.90;;;;;;4739408;30;20045;-78
2022/12/09 04:29:44;;;;;;;53.08;21.38;;;3.00;99.90;;;;;;4740204;30;20065;-78
2022/12/09 04:32:12;;;;;;;52.35;21.60;;;3.00;99.90;;;;;;4752456;30;20033;-78
2022/12/09 04:34:41;;;;;;;47.40;19.67;;;3.00;99.90;;;;;;4735947;30;20051;-78
2022/12/09 04:37:11;;;;;;;51.28;21.10;;;3.00;99.90;;;;;;4715643;30;20079;-79
2022/12/09 04:39:45;;;;;;;55.75;22.58;;;3.00;99.90;;;;;;4720283;30;20144;-78
2022/12/09 04:42:16;;;;;;;53.72;20.30;;;3.00;99.90;;;;;;4742741;30;20056;-78
2022/12/09 04:45:05;;;;;;;54.30;20.83;;;3.00;99.90;;;;;;4723854;30;20041;-79
2022/12/09 04:47:39;;;;;;;46.90;19.83;;;3.00;99.90;;;;;;4704682;30;20037;-78
2022/12/09 04:50:10;;;;;;;53.50;20.13;;;3.00;99.90;;;;;;4703463;30;20126;-79
2022/12/09 04:52:42;;;;;;;52.38;20.30;;;3.00;99.90;;;;;;4706385;30;20174;-78
2022/12/09 04:55:13;;;;;;;46.70;20.85;;;3.00;99.90;;;;;;4692760;30;20057;-79
2022/12/09 04:57:40;;;;;;;47.92;20.20;;;3.00;99.90;;;;;;4691369;30;20053;-79
2022/12/09 05:00:12;;;;;;;44.75;18.13;;;3.10;99.90;;;;;;4673949;30;20058;-78
2022/12/09 05:02:41;;;;;;;48.28;20.60;;;2.90;99.90;;;;;;4694723;30;20081;-78
2022/12/09 05:05:10;;;;;;;48.58;19.85;;;3.00;99.90;;;;;;4680285;30;20234;-78
2022/12/09 05:07:39;;;;;;;52.88;20.92;;;2.90;99.90;;;;;;4671516;30;20149;-78
2022/12/09 05:10:09;;;;;;;51.78;19.85;;;3.10;99.90;;;;;;4684374;30;20105;-78
2022/12/09 05:12:38;;;;;;;47.35;19.75;;;3.10;99.90;;;;;;4677641;30;20562;-78
2022/12/09 05:15:07;;;;;;;49.22;20.27;;;3.10;99.90;;;;;;4649183;30;20106;-78
2022/12/09 05:17:38;;;;;;;45.67;19.73;;;2.80;99.90;;;;;;4649533;30;20157;-78
2022/12/09 05:20:08;;;;;;;48.92;20.63;;;4.30;99.90;;;;;;4665424;30;20677;-78
2022/12/09 05:22:42;;;;;;;47.50;20.90;;;3.10;99.90;;;;;;4640623;30;20078;-78
2022/12/09 05:25:12;;;;;;;48.72;20.15;;;3.10;99.90;;;;;;4637580;30;20119;-78
2022/12/09 05:27:41;;;;;;;42.35;19.05;;;3.00;99.90;;;;;;4633002;31;20051;-78
2022/12/09 05:30:12;;;;;;;44.40;19.30;;;3.20;99.90;;;;;;4632707;31;20067;-78
2022/12/09 05:32:43;;;;;;;48.65;17.80;;;3.20;99.90;;;;;;4629071;30;20543;-78
2022/12/09 05:35:15;;;;;;;47.47;19.67;;;3.10;99.90;;;;;;4657606;30;20131;-78
2022/12/09 05:37:43;;;;;;;46.95;19.27;;;3.20;99.90;;;;;;4659233;30;20057;-78
2022/12/09 05:40:11;;;;;;;44.00;19.08;;;3.20;99.90;;;;;;4654508;30;20062;-79
2022/12/09 05:42:44;;;;;;;44.47;18.40;;;3.20;99.90;;;;;;4698096;30;20045;-79
2022/12/09 05:45:14;;;;;;;49.03;19.65;;;3.10;99.90;;;;;;4684557;30;20304;-78
2022/12/09 05:47:43;;;;;;;42.50;19.08;;;3.40;99.90;;;;;;4687455;30;20053;-78
2022/12/09 05:50:11;;;;;;;45.53;17.65;;;3.20;99.90;;;;;;4695595;30;20064;-78
2022/12/09 05:52:48;;;;;;;45.22;18.75;;;3.10;99.90;;;;;;4710347;30;20328;-78
2022/12/09 05:55:19;;;;;;;47.50;19.60;;;3.20;99.90;;;;;;4707337;30;20047;-78
2022/12/09 05:57:51;;;;;;;46.45;19.05;;;3.20;99.90;;;;;;4688109;30;20042;-78
2022/12/09 06:00:21;;;;;;;44.83;19.17;;;3.70;99.90;;;;;;4718485;30;20029;-78
2022/12/09 06:02:49;;;;;;;45.08;19.80;;;3.20;99.90;;;;;;4720279;30;20053;-78
2022/12/09 06:05:23;;;;;;;50.00;21.55;;;3.20;99.90;;;;;;4710676;30;20071;-78
2022/12/09 06:07:51;;;;;;;45.97;19.92;;;3.30;99.90;;;;;;4723551;30;20052;-78
2022/12/09 06:10:21;;;;;;;47.30;19.35;;;3.20;99.90;;;;;;4704488;30;20038;-78
2022/12/09 06:12:52;;;;;;;55.20;21.42;;;3.10;99.90;;;;;;4687762;30;20058;-79
2022/12/09 06:15:25;;;;;;;48.03;19.63;;;3.00;99.90;;;;;;4683425;30;20076;-78
2022/12/09 06:18:02;;;;;;;46.15;21.05;;;3.20;99.90;;;;;;4671737;30;20054;-78
2022/12/09 06:20:54;;;;;;;49.15;19.23;;;3.20;99.90;;;;;;4677432;30;20070;-79
2022/12/09 06:23:27;;;;;;;52.25;20.75;;;3.50;99.90;;;;;;4696191;30;20063;-78
2022/12/09 06:25:57;;;;;;;55.30;20.08;;;2.60;99.90;;;;;;4695379;30;20050;-78
2022/12/09 06:28:32;;;;;;;52.15;19.88;;;3.30;99.90;;;;;;4697727;30;20045;-78
2022/12/09 06:31:01;;;;;;;52.17;19.23;;;3.30;99.90;;;;;;4671208;30;20051;-78
2022/12/09 06:33:29;;;;;;;46.63;18.83;;;3.30;99.90;;;;;;4680577;30;20041;-79
2022/12/09 06:36:17;;;;;;;49.35;19.38;;;3.30;99.90;;;;;;4690251;30;20098;-79
2022/12/09 06:38:45;;;;;;;46.70;18.80;;;3.30;99.90;;;;;;4680870;30;20811;-78
2022/12/09 06:41:18;;;;;;;46.33;19.15;;;3.30;99.90;;;;;;4674566;30;20126;-78
2022/12/09 06:43:46;;;;;;;46.10;18.20;;;3.20;99.90;;;;;;4679350;30;20050;-78
2022/12/09 06:46:19;;;;;;;44.58;17.67;;;3.30;99.90;;;;;;4668928;30;20077;-79
2022/12/09 06:48:48;;;;;;;44.40;19.58;;;3.40;99.90;;;;;;4695446;30;20077;-78
2022/12/09 06:51:18;;;;;;;46.97;19.02;;;3.40;99.90;;;;;;4676708;30;20038;-78
2022/12/09 06:53:51;;;;;;;41.13;17.25;;;3.40;99.90;;;;;;4681669;30;20026;-78
2022/12/09 06:56:22;;;;;;;48.45;19.30;;;3.40;99.90;;;;;;4688885;30;20050;-78
2022/12/09 06:58:50;;;;;;;45.15;18.52;;;3.40;99.90;;;;;;4697332;30;20050;-78
2022/12/09 07:12:17;;;;;;;42.47;18.67;;;3.50;99.90;;;;;;4870414;24;20094;-89
2022/12/09 07:15:52;;;;;;;42.55;16.58;;;3.50;99.90;;;;;;4725362;30;20053;-89
2022/12/09 07:19:59;;;;;;;40.47;16.15;;;3.50;99.90;;;;;;4683592;30;20088;-88
2022/12/09 07:39:56;;;;;;;46.45;18.48;;;3.60;99.90;;;;;;4593219;31;20036;-89
2022/12/09 07:47:29;;;;;;;44.67;17.02;;;3.70;99.90;;;;;;4569395;31;20056;-90
2022/12/09 07:51:18;;;;;;;40.67;18.45;;;3.40;99.90;;;;;;4549787;31;20041;-89
2022/12/09 09:39:41;;;;;;;34.50;12.60;;;4.30;99.90;;;;;;4763903;30;20043;-89
2022/12/09 09:43:37;;;;;;;39.10;13.93;;;3.90;99.90;;;;;;4719740;30;20040;-89
2022/12/09 09:48:08;;;;;;;27.35;11.63;;;4.20;99.90;;;;;;4695659;30;20109;-89
2022/12/09 09:51:58;;;;;;;34.28;12.63;;;4.30;99.90;;;;;;4642015;31;20047;-89
2022/12/09 09:59:35;;;;;;;36.15;14.10;;;4.40;99.90;;;;;;5276695;24;20059;-89
2022/12/09 11:31:36;;;;;;;50.00;19.17;;;4.70;99.90;;;;;;5193833;24;20037;-79
2022/12/09 12:48:45;;;;;;;45.30;18.88;;;4.60;99.90;;;;;;4747405;30;20048;-90
2022/12/09 13:40:47;;;;;;;86.53;35.85;;;4.70;99.90;;;;;;5562708;24;20062;-79
2022/12/09 14:58:06;;;;;;;75.18;28.40;;;4.60;99.90;;;;;;4738621;30;20060;-78
2022/12/09 15:00:41;;;;;;;86.38;31.98;;;4.60;99.90;;;;;;4730776;30;20032;-79
2022/12/09 15:03:21;;;;;;;64.60;27.10;;;4.60;99.90;;;;;;4733076;30;20076;-78
2022/12/09 15:06:25;;;;;;;60.28;22.48;;;4.60;99.90;;;;;;4729330;30;20044;-78
2022/12/09 15:08:56;;;;;;;50.15;17.90;;;4.60;99.90;;;;;;4718734;30;20496;-78
2022/12/09 15:11:34;;;;;;;55.65;19.52;;;4.60;99.90;;;;;;5259529;24;20071;-78
2022/12/09 15:14:26;;;;;;;38.92;13.32;;;4.60;99.90;;;;;;4779400;29;20154;-78
2022/12/09 15:17:03;;;;;;;52.78;18.60;;;4.60;99.90;;;;;;4918402;24;20062;-78
2022/12/09 15:20:16;;;;;;;49.08;18.15;;;4.60;99.90;;;;;;5138734;24;20050;31
2022/12/09 15:22:51;;;;;;;45.97;15.52;;;4.60;99.90;;;;;;4741888;30;20053;-79
2022/12/09 15:25:28;;;;;;;48.40;18.55;;;4.60;99.90;;;;;;4735141;30;20080;-79
2022/12/09 15:28:02;;;;;;;46.47;16.83;;;4.60;99.90;;;;;;4751657;30;20048;-78
2022/12/09 15:30:42;;;;;;;42.50;15.82;;;4.60;99.90;;;;;;4735811;30;20048;-78
2022/12/09 15:43:48;;;;;;;67.30;26.42;;;4.60;99.90;;;;;;5103165;24;20044;31
2022/12/09 15:46:36;;;;;;;115.00;46.47;;;4.60;99.90;;;;;;5289504;24;20030;-78
2022/12/09 15:49:08;;;;;;;99.60;42.50;;;4.60;99.90;;;;;;4753735;30;20083;-78
2022/12/09 15:51:37;;;;;;;47.42;20.10;;;4.60;99.90;;;;;;4751588;30;20039;-79
2022/12/09 15:54:22;;;;;;;39.92;17.25;;;4.60;99.90;;;;;;4748242;30;20589;-79
2022/12/09 15:57:06;;;;;;;34.17;12.55;;;4.60;99.90;;;;;;4747416;30;20060;-79
2022/12/09 16:03:31;;;;;;;35.15;13.18;;;4.60;99.90;;;;;;5324322;24;20048;-78
2022/12/09 16:06:29;;;;;;;26.45;9.45;;;4.60;99.90;;;;;;4762589;30;20052;-79
2022/12/09 16:12:34;;;;;;;32.08;14.25;;;4.60;99.90;;;;;;5043217;24;20040;-78
2022/12/09 16:18:55;;;;;;;34.00;12.23;;;4.60;99.90;;;;;;4754977;30;20067;-78
2022/12/09 16:21:36;;;;;;;33.10;12.57;;;4.60;99.90;;;;;;4734212;30;20101;-78
2022/12/09 16:24:32;;;;;;;40.55;14.15;;;4.60;99.90;;;;;;5182968;24;20631;-80
2022/12/09 16:45:23;;;;;;;41.17;15.32;;;4.60;99.90;;;;;;5245874;24;20062;-78
2022/12/09 16:47:56;;;;;;;41.78;14.85;;;4.60;99.90;;;;;;4775270;30;20031;-78
2022/12/09 16:50:34;;;;;;;42.22;15.93;;;4.60;99.90;;;;;;4789451;29;20059;-78
2022/12/09 17:07:56;;;;;;;104.30;36.53;;;4.70;99.90;;;;;;5382231;24;20085;-78
2022/12/09 17:10:27;;;;;;;91.82;34.10;;;4.70;99.90;;;;;;4768186;30;20085;-78
2022/12/09 17:19:51;;;;;;;94.05;31.75;;;4.80;99.90;;;;;;4734444;30;20116;-78
2022/12/09 17:22:18;;;;;;;117.18;44.75;;;4.80;99.90;;;;;;4715349;30;20034;-77
2022/12/09 17:24:50;;;;;;;68.22;26.05;;;4.80;99.90;;;;;;4820512;24;20101;-78
2022/12/09 17:27:18;;;;;;;45.78;21.27;;;4.80;99.90;;;;;;4769964;30;20055;-78
2022/12/09 17:29:46;;;;;;;48.55;20.20;;;4.80;99.90;;;;;;4790859;30;20082;-78
2022/12/09 17:32:14;;;;;;;42.30;17.52;;;4.80;99.90;;;;;;4787235;30;20529;-78
2022/12/09 17:34:58;;;;;;;41.67;18.70;;;4.80;99.90;;;;;;4789544;30;20102;-78
2022/12/09 17:37:38;;;;;;;54.47;20.90;;;4.80;99.90;;;;;;4787578;30;20151;-78
2022/12/09 17:40:08;;;;;;;47.70;19.88;;;4.80;99.90;;;;;;4786787;29;20039;-78
2022/12/09 17:43:09;;;;;;;46.60;19.30;;;4.80;99.90;;;;;;5638852;24;20027;31
2022/12/09 17:48:42;;;;;;;47.97;19.85;;;4.80;99.90;;;;;;5215465;24;20086;-78
2022/12/09 17:51:13;;;;;;;46.90;17.05;;;4.80;99.90;;;;;;4764797;30;20036;-78
2022/12/09 17:53:42;;;;;;;50.22;19.92;;;4.80;99.90;;;;;;5204775;24;20053;-78
2022/12/09 19:19:27;;;;;;;48.40;20.10;;;4.90;99.90;;;;;;4726130;30;20121;-79
2022/12/09 19:21:55;;;;;;;47.65;18.17;;;4.90;99.90;;;;;;4720238;30;20129;-79
2022/12/09 19:24:31;;;;;;;52.17;21.92;;;4.90;99.90;;;;;;4683089;30;20062;-78
2022/12/09 19:26:59;;;;;;;50.92;20.85;;;4.90;99.90;;;;;;4666332;30;20084;-78
2022/12/09 19:29:29;;;;;;;51.05;19.85;;;4.90;99.90;;;;;;4676060;30;20053;-79
2022/12/09 19:31:58;;;;;;;55.55;21.65;;;4.90;99.90;;;;;;4690770;30;20519;-79
2022/12/09 19:34:28;;;;;;;50.42;21.30;;;4.90;99.90;;;;;;4681947;30;20050;-79
2022/12/09 19:37:00;;;;;;;54.72;21.35;;;5.00;99.90;;;;;;4695763;30;20053;-79
2022/12/09 19:39:32;;;;;;;41.00;17.08;;;4.90;99.90;;;;;;4674503;30;20054;-79
2022/12/09 19:42:05;;;;;;;44.40;17.98;;;4.90;99.90;;;;;;4662791;30;20046;-79
2022/12/09 19:44:35;;;;;;;38.45;17.40;;;4.90;99.90;;;;;;4642594;30;20051;-79
2022/12/09 19:47:34;;;;;;;34.92;15.45;;;5.00;99.90;;;;;;4659167;30;20133;-79
2022/12/09 19:50:02;;;;;;;37.90;15.43;;;4.90;99.90;;;;;;4659377;30;20055;-79
2022/12/09 19:52:41;;;;;;;35.63;14.90;;;5.00;99.90;;;;;;4636325;30;20675;-78
2022/12/09 19:55:12;;;;;;;35.92;14.10;;;5.00;99.90;;;;;;4627529;31;20059;-78
2022/12/09 19:57:43;;;;;;;35.17;14.65;;;5.00;99.90;;;;;;4625496;31;20521;-79
2022/12/09 20:00:17;;;;;;;40.72;16.05;;;5.00;99.90;;;;;;4622175;30;20441;-78
2022/12/09 20:03:01;;;;;;;40.80;16.00;;;5.00;99.90;;;;;;4651245;30;20075;-79
2022/12/09 20:05:50;;;;;;;37.00;15.60;;;5.00;99.90;;;;;;4659187;30;20059;-79
2022/12/09 20:08:20;;;;;;;37.55;15.98;;;5.00;99.90;;;;;;4648346;30;20069;-78
2022/12/09 20:11:01;;;;;;;;;;;5.00;99.90;;;;;;4674651;30;20110;-78
2022/12/09 20:13:36;;;;;;;;;;;5.00;99.90;;;;;;4663572;30;19945;-79
2022/12/09 20:16:06;;;;;;;64.18;28.70;;;5.00;99.90;;;;;;4663548;30;19935;-79
2022/12/09 20:18:57;;;;;;;49.03;20.25;;;5.00;99.90;;;;;;4630912;31;20056;-78
2022/12/09 20:21:32;;;;;;;45.20;19.30;;;5.00;99.90;;;;;;4613019;31;20079;-78
2022/12/09 20:24:04;;;;;;;44.17;18.67;;;5.00;99.90;;;;;;4632412;30;20107;-78
2022/12/09 20:26:41;;;;;;;41.78;18.00;;;5.00;99.90;;;;;;4633273;30;20039;-78
2022/12/09 20:29:22;;;;;;;45.30;18.55;;;5.00;99.90;;;;;;4641673;30;20549;-79
2022/12/09 20:31:52;;;;;;;49.13;20.38;;;5.00;99.90;;;;;;4633256;30;20066;-79
2022/12/09 20:34:25;;;;;;;53.33;21.88;;;5.00;99.90;;;;;;4633259;30;20082;-78
2022/12/09 20:36:53;;;;;;;55.20;21.55;;;5.00;99.90;;;;;;4625508;30;20055;-79
2022/12/09 20:39:25;;;;;;;47.72;20.40;;;5.00;99.90;;;;;;4596012;31;20047;-79
2022/12/09 20:42:02;;;;;;;44.20;18.35;;;5.10;99.90;;;;;;4613204;31;20063;-79
2022/12/09 20:44:33;;;;;;;39.30;17.67;;;5.10;99.90;;;;;;4603911;31;20060;-79
2022/12/09 20:47:02;;;;;;;41.75;17.17;;;5.10;99.90;;;;;;4610811;31;20622;-79
2022/12/09 20:49:30;;;;;;;37.97;16.50;;;5.10;99.90;;;;;;4605646;31;20052;-79
2022/12/09 20:51:58;;;;;;;33.97;15.18;;;5.20;99.90;;;;;;4603779;31;20143;-79
2022/12/09 20:54:30;;;;;;;34.42;14.50;;;5.10;99.90;;;;;;4584899;31;20060;-79
2022/12/09 20:57:00;;;;;;;24.50;12.38;;;5.20;99.90;;;;;;4570256;31;20598;-79
2022/12/09 20:59:28;;;;;;;31.50;12.90;;;5.20;99.90;;;;;;4561078;31;20058;-79
2022/12/09 21:01:57;;;;;;;34.72;13.98;;;5.20;99.90;;;;;;4554378;31;20049;-79
2022/12/09 21:04:27;;;;;;;42.47;18.23;;;5.20;99.90;;;;;;4577573;31;20053;-79
